Wilson Observed Data For Previous 48 Hours

Caption
Day and Hour Reservoir Elevation (behind dam)* Tailwater Elevation (below dam)* Average Hourly Discharge*
3/22/2019 1 AM CDT 505.56 419.74 119,007
3/22/2019 2 AM CDT 505.37 419.78 118,782
3/22/2019 3 AM CDT 505.28 419.70 118,710
3/22/2019 4 AM CDT 505.07 419.65 118,489
3/22/2019 5 AM CDT 504.91 419.67 118,174
3/22/2019 6 AM CDT 504.88 419.65 118,331
3/22/2019 7 AM CDT 504.75 419.59 118,127
3/22/2019 8 AM CDT 504.70 419.71 117,967
3/22/2019 9 AM CDT 504.67 419.67 118,220
3/22/2019 10 AM CDT 504.63 419.12 112,620
3/22/2019 11 AM CDT 504.71 417.10 91,173
3/22/2019 12 PM CDT 504.91 416.02 77,623
3/22/2019 1 PM CDT 504.85 416.71 74,942
3/22/2019 2 PM CDT 504.88 417.81 82,821
3/22/2019 3 PM CDT 504.82 418.02 93,685
3/22/2019 4 PM CDT 504.69 418.32 94,223
3/22/2019 5 PM CDT 504.65 418.19 94,567
3/22/2019 6 PM CDT 504.58 418.10 94,783
3/22/2019 7 PM CDT 504.60 418.08 95,150
3/22/2019 8 PM CDT 504.61 418.22 95,721
3/22/2019 9 PM CDT 504.68 418.19 95,500
3/22/2019 10 PM CDT 504.73 418.07 95,523
3/22/2019 11 PM CDT 504.74 418.07 95,664
3/23/2019 12 AM CDT 504.80 418.00 95,430
3/23/2019 1 AM CDT 504.86 418.09 95,431
3/23/2019 2 AM CDT 504.89 418.15 95,664
3/23/2019 3 AM CDT 504.93 418.14 95,411
3/23/2019 4 AM CDT 504.94 418.18 95,512
3/23/2019 5 AM CDT 505.03 418.83 95,525
3/23/2019 6 AM CDT 505.06 418.20 95,556
3/23/2019 7 AM CDT 505.10 418.23 95,534
3/23/2019 8 AM CDT 505.18 417.25 89,477
3/23/2019 9 AM CDT 505.29 417.12 87,145
3/23/2019 10 AM CDT 505.36 417.25 87,051
3/23/2019 11 AM CDT 505.46 417.13 86,870
3/23/2019 12 PM CDT 505.43 417.08 86,718
3/23/2019 1 PM CDT 505.46 417.26 86,747
3/23/2019 2 PM CDT 505.42 417.12 86,635
3/23/2019 3 PM CDT 505.38 418.10 88,169
3/23/2019 4 PM CDT 505.34 418.53 94,935
3/23/2019 5 PM CDT 505.29 418.05 94,823
3/23/2019 6 PM CDT 505.31 417.96 95,141
3/23/2019 7 PM CDT 505.33 418.59 95,359
3/23/2019 8 PM CDT 505.45 418.02 95,406
3/23/2019 9 PM CDT 505.44 418.08 95,344
3/23/2019 10 PM CDT 505.48 418.10 95,515
3/23/2019 11 PM CDT 505.41 418.06 95,170
3/24/2019 12 AM CDT 505.40 418.13 95,138

Elevations are in feet above sea level. Discharges are in cubic feet per second and are reported at the end of the hour.